createdAt,value
2023-03-08T00:00:45.231Z,2.65
2023-03-08T00:05:45.853Z,2.80
2023-03-08T00:10:47.299Z,2.63
2023-03-08T00:15:49.368Z,3.58
2023-03-08T00:20:59.823Z,3.42
2023-03-08T00:26:00.546Z,3.55
2023-03-08T00:31:05.168Z,3.78
2023-03-08T00:36:08.379Z,3.55
2023-03-08T00:41:11.908Z,3.75
2023-03-08T00:46:14.792Z,3.20
2023-03-08T00:51:16.710Z,3.83
2023-03-08T00:56:17.375Z,3.80
2023-03-08T01:01:20.625Z,2.80
2023-03-08T01:06:23.322Z,2.80
2023-03-08T01:11:26.023Z,3.20
2023-03-08T01:16:30.767Z,4.03
2023-03-08T01:21:33.630Z,5.07
2023-03-08T01:26:34.366Z,5.53
2023-03-08T01:31:36.402Z,4.38
2023-03-08T01:36:37.272Z,4.05
2023-03-08T01:41:38.061Z,3.70
2023-03-08T01:46:40.042Z,3.00
2023-03-08T01:51:49.421Z,2.63
2023-03-08T01:56:52.306Z,2.90
2023-03-08T02:01:54.804Z,3.08
2023-03-08T02:06:56.304Z,3.42
2023-03-08T02:12:02.189Z,2.75
2023-03-08T02:17:05.383Z,2.70
2023-03-08T02:22:10.170Z,3.40
2023-03-08T02:27:18.364Z,3.40
2023-03-08T02:32:19.324Z,2.85
2023-03-08T02:37:20.037Z,3.17
2023-03-08T02:42:23.259Z,3.00
2023-03-08T02:47:24.013Z,3.53
2023-03-08T02:52:24.750Z,2.92
2023-03-08T02:57:26.766Z,2.90
2023-03-08T03:02:28.872Z,3.28
2023-03-08T03:07:36.924Z,4.22
2023-03-08T03:12:39.038Z,3.60
2023-03-08T03:17:42.856Z,3.95
2023-03-08T03:22:44.861Z,3.72
2023-03-08T03:27:46.935Z,4.05
2023-03-08T03:32:48.301Z,3.97
2023-03-08T03:37:53.983Z,4.47
2023-03-08T03:42:56.920Z,4.00
2023-03-08T03:47:58.387Z,3.95
2023-03-08T03:53:00.513Z,4.25
2023-03-08T03:58:03.726Z,4.10
2023-03-08T04:03:05.827Z,5.00
2023-03-08T04:08:09.538Z,4.88
2023-03-08T04:13:15.328Z,5.82
2023-03-08T04:18:16.853Z,5.75
2023-03-08T04:23:19.494Z,5.97
2023-03-08T04:28:22.984Z,6.22
2023-03-08T04:33:23.872Z,7.03
2023-03-08T04:38:25.012Z,7.18
2023-03-08T04:43:30.784Z,6.20
2023-03-08T04:48:32.030Z,7.72
2023-03-08T04:53:33.312Z,7.65
2023-03-08T04:58:37.193Z,7.85
2023-03-08T05:03:38.726Z,8.18
2023-03-08T05:08:39.625Z,8.00
2023-03-08T05:13:42.465Z,7.90
2023-03-08T05:18:43.881Z,8.20
2023-03-08T05:23:45.540Z,8.45
2023-03-08T05:28:49.725Z,7.10
2023-03-08T05:33:53.787Z,8.32
2023-03-08T05:39:02.351Z,8.48
2023-03-08T05:44:13.121Z,8.95
2023-03-08T05:49:14.315Z,10.13
2023-03-08T05:54:15.613Z,10.07
2023-03-08T05:59:20.707Z,9.07
2023-03-08T06:04:21.595Z,10.35
2023-03-08T06:09:24.128Z,9.63
2023-03-08T06:14:26.875Z,10.77
2023-03-08T06:19:27.696Z,10.23
2023-03-08T06:24:30.752Z,10.43
2023-03-08T06:29:36.201Z,10.45
2023-03-08T06:34:37.329Z,10.77
2023-03-08T06:39:39.329Z,9.95
2023-03-08T06:44:42.222Z,9.75
2023-03-08T06:49:44.252Z,9.30
2023-03-08T06:54:45.498Z,8.13
2023-03-08T06:59:47.643Z,7.68
2023-03-08T07:04:49.692Z,7.25
2023-03-08T07:09:50.577Z,6.93
2023-03-08T07:14:54.266Z,6.47
2023-03-08T07:19:54.950Z,5.55
2023-03-08T07:24:55.612Z,6.25
2023-03-08T07:29:57.794Z,4.90
2023-03-08T07:34:59.074Z,5.40
2023-03-08T07:39:59.805Z,6.78
2023-03-08T07:45:01.878Z,6.82
2023-03-08T07:50:02.557Z,8.57
2023-03-08T07:55:03.350Z,8.27
2023-03-08T08:00:08.295Z,8.55
2023-03-08T08:05:12.706Z,9.13
2023-03-08T08:10:13.512Z,8.57
2023-03-08T08:15:16.839Z,8.63
2023-03-08T08:20:17.857Z,9.20
2023-03-08T08:25:18.586Z,9.10
2023-03-08T08:30:21.269Z,9.18
2023-03-08T08:35:23.949Z,8.55
2023-03-08T08:40:28.443Z,8.95
2023-03-08T08:45:30.590Z,9.52
2023-03-08T08:50:31.303Z,8.75
2023-03-08T08:55:32.015Z,9.07
2023-03-08T09:00:35.083Z,7.68
2023-03-08T09:05:39.418Z,8.13
2023-03-08T09:10:41.557Z,7.82
2023-03-08T09:15:43.560Z,7.68
2023-03-08T09:20:44.273Z,7.65
2023-03-08T09:25:45.060Z,8.10
2023-03-08T09:30:47.037Z,8.43
2023-03-08T09:35:56.649Z,8.55
2023-03-08T09:41:11.321Z,8.80
2023-03-08T09:46:27.564Z,9.07
2023-03-08T09:51:35.221Z,8.85
2023-03-08T09:56:41.853Z,8.07
2023-03-08T10:01:53.330Z,7.82
2023-03-08T10:07:05.091Z,7.38
2023-03-08T10:12:16.986Z,7.45
2023-03-08T10:17:22.054Z,6.97
2023-03-08T10:22:27.893Z,7.45
2023-03-08T10:27:33.138Z,6.72
2023-03-08T10:32:43.952Z,6.20
2023-03-08T10:37:51.785Z,5.57
2023-03-08T10:42:54.969Z,5.13
2023-03-08T10:47:59.331Z,5.13
2023-03-08T10:53:10.284Z,5.13
2023-03-08T10:58:30.440Z,5.43
2023-03-08T11:03:33.368Z,5.43
2023-03-08T11:08:35.502Z,5.07
2023-03-08T11:13:39.024Z,5.80
2023-03-08T11:18:52.471Z,5.60
2023-03-08T11:24:03.402Z,6.03
2023-03-08T11:29:14.812Z,6.13
2023-03-08T11:34:42.230Z,7.32
2023-03-08T11:39:47.596Z,7.57
2023-03-08T11:45:03.007Z,8.65
2023-03-08T11:50:10.863Z,8.98
2023-03-08T11:55:29.848Z,8.77
2023-03-08T12:00:35.276Z,10.52
2023-03-08T12:05:42.027Z,10.77
2023-03-08T12:10:48.127Z,11.50
2023-03-08T12:15:55.443Z,13.43
2023-03-08T12:21:08.891Z,13.32
2023-03-08T12:26:17.074Z,14.60
2023-03-08T12:31:28.919Z,39.97
2023-03-08T12:36:42.775Z,17.38
2023-03-08T12:41:43.637Z,16.40
2023-03-08T12:47:01.854Z,15.27
2023-03-08T12:52:07.720Z,14.77
2023-03-08T12:57:19.959Z,15.77
2023-03-08T13:02:28.449Z,15.32
2023-03-08T13:07:38.169Z,13.23
2023-03-08T13:13:37.604Z,11.77
2023-03-08T13:18:39.993Z,10.43
2023-03-08T13:23:47.973Z,10.55
2023-03-08T13:28:49.144Z,10.93
2023-03-08T13:33:51.684Z,9.90
2023-03-08T13:39:02.430Z,9.90
2023-03-08T13:44:04.905Z,9.77
2023-03-08T13:49:15.278Z,9.63
2023-03-08T13:54:23.519Z,9.30
2023-03-08T13:59:24.265Z,10.57
2023-03-08T14:04:27.693Z,10.50
2023-03-08T14:09:29.853Z,9.20
2023-03-08T14:14:33.637Z,8.50
2023-03-08T14:19:37.369Z,7.95
2023-03-08T14:24:40.523Z,7.65
2023-03-08T14:29:43.638Z,6.47
2023-03-08T14:34:45.964Z,6.43
2023-03-08T14:39:49.550Z,5.75
2023-03-08T14:44:52.609Z,5.32
2023-03-08T14:49:57.845Z,6.88
2023-03-08T14:55:03.278Z,6.07
2023-03-08T15:00:14.107Z,6.90
2023-03-08T15:05:25.547Z,6.95
2023-03-08T15:10:32.779Z,6.85
2023-03-08T15:15:33.534Z,7.82
2023-03-08T15:20:34.338Z,7.40
2023-03-08T15:25:40.808Z,7.72
2023-03-08T15:31:04.200Z,7.50
2023-03-08T15:36:08.953Z,6.57
2023-03-08T15:41:13.689Z,7.53
2023-03-08T15:46:15.444Z,8.20
2023-03-08T15:51:20.157Z,6.93
2023-03-08T15:56:23.010Z,7.65
2023-03-08T16:01:25.621Z,8.75
2023-03-08T16:06:27.479Z,9.82
2023-03-08T16:11:29.479Z,9.90
2023-03-08T16:16:44.439Z,11.32
2023-03-08T16:21:46.069Z,10.77
2023-03-08T16:26:48.099Z,10.93
2023-03-08T16:31:49.145Z,11.68
2023-03-08T16:36:49.835Z,11.73
2023-03-08T16:41:52.089Z,12.43
2023-03-08T16:46:53.148Z,12.27
2023-03-08T16:51:53.797Z,12.50
2023-03-08T16:56:55.868Z,13.27
2023-03-08T17:01:56.506Z,12.95
2023-03-08T17:06:57.782Z,12.82
2023-03-08T17:11:59.773Z,12.80
2023-03-08T17:17:00.422Z,14.00
2023-03-08T17:22:01.126Z,13.02
2023-03-08T17:27:03.113Z,13.45
2023-03-08T17:32:03.908Z,11.82
2023-03-08T17:37:11.395Z,11.73
2023-03-08T17:42:13.458Z,11.60
2023-03-08T17:47:14.675Z,12.02
2023-03-08T17:52:15.917Z,11.90
2023-03-08T17:57:18.674Z,11.90
2023-03-08T18:02:19.824Z,12.77
2023-03-08T18:07:21.422Z,12.45
2023-03-08T18:12:23.418Z,12.38
2023-03-08T18:17:24.318Z,12.75
2023-03-08T18:22:24.980Z,13.30
2023-03-08T18:27:27.012Z,12.48
2023-03-08T18:32:28.065Z,12.25
2023-03-08T18:37:30.548Z,11.68
2023-03-08T18:42:33.233Z,11.55
2023-03-08T18:47:34.548Z,12.88
2023-03-08T18:52:35.241Z,12.73
2023-03-08T18:57:37.324Z,12.85
2023-03-08T19:02:38.051Z,14.07
2023-03-08T19:07:41.025Z,14.18
2023-03-08T19:12:43.794Z,12.70
2023-03-08T19:17:44.607Z,13.15
2023-03-08T19:22:45.321Z,14.02
2023-03-08T19:27:47.919Z,14.35
2023-03-08T19:32:49.434Z,13.55
2023-03-08T19:37:50.210Z,14.25
2023-03-08T19:42:53.668Z,15.70
2023-03-08T19:47:54.409Z,15.73
2023-03-08T19:52:55.130Z,16.60
2023-03-08T19:57:57.229Z,15.18
2023-03-08T20:02:59.533Z,16.95
2023-03-08T20:08:00.401Z,15.82
2023-03-08T20:13:02.617Z,16.05
2023-03-08T20:18:03.387Z,16.42
2023-03-08T20:23:04.156Z,17.10
2023-03-08T20:28:06.453Z,16.10
2023-03-08T20:33:07.458Z,15.25
2023-03-08T20:38:08.341Z,17.25
2023-03-08T20:43:11.042Z,16.23
2023-03-08T20:48:11.732Z,16.95
2023-03-08T20:53:12.467Z,16.85
2023-03-08T20:58:14.554Z,20.83
2023-03-08T21:03:15.389Z,16.45
2023-03-08T21:08:16.915Z,17.70
2023-03-08T21:13:18.907Z,17.10
2023-03-08T21:18:19.564Z,17.90
2023-03-08T21:23:23.064Z,16.50
2023-03-08T21:28:25.299Z,18.13
2023-03-08T21:33:26.009Z,18.23
2023-03-08T21:38:26.694Z,19.33
2023-03-08T21:43:28.702Z,19.27
2023-03-08T21:48:29.343Z,21.23
2023-03-08T21:53:29.976Z,19.73
2023-03-08T21:58:32.002Z,17.95
2023-03-08T22:03:33.516Z,18.95
2023-03-08T22:08:34.148Z,19.15
2023-03-08T22:13:36.674Z,18.90
2023-03-08T22:18:37.315Z,18.60
2023-03-08T22:23:38.057Z,18.88
2023-03-08T22:28:40.014Z,18.23
2023-03-08T22:33:41.088Z,19.30
2023-03-08T22:38:42.789Z,19.65
2023-03-08T22:43:45.596Z,19.77
2023-03-08T22:48:47.593Z,19.15
2023-03-08T22:53:48.252Z,19.90
2023-03-08T22:58:50.851Z,19.52
2023-03-08T23:03:55.075Z,18.77
2023-03-08T23:08:56.527Z,19.23
2023-03-08T23:13:58.596Z,20.40
2023-03-08T23:18:59.389Z,18.63
2023-03-08T23:24:01.300Z,17.75
2023-03-08T23:29:04.259Z,17.60
2023-03-08T23:34:06.354Z,17.77
2023-03-08T23:39:07.240Z,16.83
2023-03-08T23:44:11.088Z,17.35
2023-03-08T23:49:11.725Z,17.42
2023-03-08T23:54:13.366Z,17.73
2023-03-08T23:59:18.794Z,17.73
